Stations météo

réclame
Mon MeteoGroup
Cartagena, Espagne (8434): Température de l'air & dewpoint: 14.08.2018 19:00:00 - 20.08.2018 19:00:00 (CEST)Cartagena, Espagne (8434): Vitesse du vent & gusts: 14.08.2018 19:00:00 - 20.08.2018 19:00:00 (CEST)Cartagena, Espagne (8434): Direction du vent: 14.08.2018 19:00:00 - 20.08.2018 19:00:00 (CEST)Cartagena, Espagne (8434): Quantités de précipitations: 14.08.2018 19:00:00 - 20.08.2018 19:00:00 (CEST)
Date & Time tt [°C] td [°C] ff [km/h] ff [knt] fx [km/h] fx [knt] dd rr [mm]
20.08.2018 19:00:00 - - - - - - - -
20.08.2018 18:00:00 28,7 17,9 15 8 24 13 SE 0,0
20.08.2018 17:00:00 30,8 17,5 8 5 23 13 ENE 0,0
20.08.2018 16:00:00 30,4 16,4 12 7 28 15 ENE 0,0
20.08.2018 15:00:00 30,3 16,3 11 6 23 12 ENE 0,0
20.08.2018 14:00:00 30,2 16,2 8 4 24 13 ENE -
20.08.2018 13:00:00 29,7 15,8 8 5 23 12 ENE 0,0
20.08.2018 12:00:00 29,4 16,6 6 4 17 9 ENE 0,0
20.08.2018 11:00:00 28,3 17,8 5 3 14 8 N 0,0
20.08.2018 10:00:00 26,5 18,6 5 3 13 7 N 0,0
20.08.2018 09:00:00 24,5 18,7 6 3 11 6 NNW 0,0
20.08.2018 08:00:00 22,3 18,1 5 3 13 7 N -
20.08.2018 07:00:00 22,4 18,0 4 2 12 7 NNW 0,0
20.08.2018 06:00:00 22,6 18,4 6 3 12 6 NW 0,0
20.08.2018 05:00:00 23,1 18,6 4 2 8 5 N 0,0
20.08.2018 04:00:00 23,4 18,7 3 2 9 5 NNW 0,0
20.08.2018 03:00:00 23,6 18,7 4 2 11 6 WNW 0,0
20.08.2018 02:00:00 24,1 19,0 4 2 14 8 N -
20.08.2018 01:00:00 24,7 19,1 4 2 14 8 N 0,0
20.08.2018 00:00:00 25,5 19,4 4 2 11 6 N 0,0
19.08.2018 23:00:00 25,8 19,4 3 2 12 7 NNE 0,0
19.08.2018 22:00:00 26,0 19,6 5 3 20 11 NE 0,0
19.08.2018 21:00:00 26,3 19,4 9 5 19 10 ENE 0,0
19.08.2018 20:00:00 27,0 18,8 9 5 22 12 ENE -
19.08.2018 19:00:00 27,6 18,9 6 4 22 12 ENE 0,0
19.08.2018 18:00:00 28,5 18,9 10 6 26 14 NE 0,0
19.08.2018 17:00:00 28,7 18,5 12 6 29 16 ENE 0,0
19.08.2018 16:00:00 28,9 18,9 9 5 26 14 E 0,0
19.08.2018 15:00:00 28,5 18,6 10 5 26 14 NE 0,0
19.08.2018 14:00:00 28,6 18,7 8 4 26 14 ENE -
19.08.2018 13:00:00 28,6 18,1 9 5 26 14 ENE 0,0
19.08.2018 12:00:00 28,5 18,9 10 5 23 12 ENE 0,0
19.08.2018 11:00:00 26,8 19,4 9 5 26 14 ENE 0,0
19.08.2018 10:00:00 26,0 19,6 9 5 26 14 ENE 0,0
19.08.2018 09:00:00 24,7 20,2 4 2 11 6 N 0,0
19.08.2018 08:00:00 23,9 19,4 5 3 15 8 N -
19.08.2018 07:00:00 24,2 19,3 5 3 13 7 NNW 0,0
19.08.2018 06:00:00 25,3 19,2 2 1 17 9 NE 0,0
19.08.2018 05:00:00 25,4 19,3 5 3 14 8 ENE 0,0
19.08.2018 04:00:00 25,4 19,3 5 3 16 8 NE 0,0
19.08.2018 03:00:00 25,6 19,5 3 2 14 7 NNE 0,0
19.08.2018 02:00:00 25,4 19,1 6 3 17 9 NNE -
19.08.2018 01:00:00 25,4 19,1 4 2 17 9 NNE 0,0
19.08.2018 00:00:00 25,5 19,4 7 4 18 10 NE 0,0
18.08.2018 23:00:00 25,7 19,6 6 3 19 10 NE 0,0
18.08.2018 22:00:00 26,1 20,0 6 3 17 9 NE 0,0
18.08.2018 21:00:00 26,4 19,8 6 3 18 10 NE 0,0
18.08.2018 20:00:00 26,9 19,5 7 4 17 9 NE -
18.08.2018 19:00:00 27,4 20,0 9 5 22 12 ENE 0,0
18.08.2018 18:00:00 27,7 19,2 8 5 21 11 ESE 0,0
18.08.2018 17:00:00 28,6 19,2 7 4 28 15 ENE 0,0
18.08.2018 16:00:00 29,1 19,4 8 4 24 13 ENE 0,0
18.08.2018 15:00:00 28,4 20,1 11 6 24 13 E 0,0
18.08.2018 14:00:00 28,0 19,5 9 5 19 10 ENE -
18.08.2018 13:00:00 27,6 19,7 8 4 19 11 ENE 0,0
18.08.2018 12:00:00 26,9 19,8 4 2 13 7 SE 0,0
18.08.2018 11:00:00 27,1 19,2 3 1 10 5 SW 0,0
18.08.2018 10:00:00 26,8 19,7 2 1 10 6 NNE 0,0
18.08.2018 09:00:00 24,4 19,0 3 2 8 4 NNW 0,0
18.08.2018 08:00:00 23,4 18,7 2 1 8 4 WNW -
18.08.2018 07:00:00 23,4 18,7 3 1 9 5 WNW 0,0
18.08.2018 06:00:00 23,9 19,0 4 2 14 7 N 0,0
18.08.2018 05:00:00 24,4 19,2 3 2 14 7 N 0,0
18.08.2018 04:00:00 24,5 19,8 5 3 14 8 N 0,0
18.08.2018 03:00:00 24,7 19,8 5 3 11 6 N 0,0
18.08.2018 02:00:00 24,9 19,7 4 2 9 5 N -
18.08.2018 01:00:00 25,2 20,0 4 2 11 6 NNE 0,0
18.08.2018 00:00:00 25,3 20,3 3 2 10 5 E 0,0
17.08.2018 23:00:00 25,7 20,5 4 2 12 6 ENE 0,0
17.08.2018 22:00:00 25,8 20,4 6 3 11 6 ESE 0,0
17.08.2018 21:00:00 26,5 21,0 2 1 9 5 SSW 0,0
17.08.2018 20:00:00 26,7 20,8 3 2 14 8 SSE -
17.08.2018 19:00:00 27,5 20,8 4 2 15 8 S 0,0
17.08.2018 18:00:00 27,3 20,9 5 3 21 11 SSE 0,0
17.08.2018 17:00:00 27,3 21,8 6 3 21 11 SSE 0,1
17.08.2018 16:00:00 27,9 19,9 8 5 17 9 S 0,0
17.08.2018 15:00:00 27,8 19,3 7 4 16 9 SSW 0,0
17.08.2018 14:00:00 27,9 19,4 6 3 16 9 S -
17.08.2018 13:00:00 28,3 19,8 7 4 16 8 S 0,0
17.08.2018 12:00:00 29,2 18,6 3 2 13 7 NE 0,0
17.08.2018 11:00:00 27,9 19,4 4 2 9 5 W 0,0
17.08.2018 10:00:00 26,7 19,3 1 1 7 4 SW 0,0
17.08.2018 09:00:00 24,8 17,3 3 2 8 4 NE 0,0
17.08.2018 08:00:00 23,7 17,2 4 2 10 5 NW -
17.08.2018 07:00:00 23,6 18,0 2 1 6 3 NW 0,0
17.08.2018 06:00:00 24,0 17,7 1 1 4 2 WNW 0,0
17.08.2018 05:00:00 23,9 17,2 0 0 4 2 WNW 0,0
17.08.2018 04:00:00 24,0 16,8 0 0 4 2 WNW 0,0
17.08.2018 03:00:00 24,3 16,3 3 1 7 4 NNE 0,0
17.08.2018 02:00:00 24,1 16,6 4 2 16 8 NW -
17.08.2018 01:00:00 24,9 16,1 2 1 9 5 NE 0,0
17.08.2018 00:00:00 25,2 16,1 5 3 10 5 NNW 0,0
16.08.2018 23:00:00 25,1 16,5 4 2 7 4 E 0,0
16.08.2018 22:00:00 24,5 16,5 5 3 24 13 NW 0,0
16.08.2018 21:00:00 25,1 17,1 11 6 21 11 W 0,0
16.08.2018 20:00:00 - - - - - - - -
16.08.2018 19:00:00 25,6 19,9 4 2 38 20 WSW 0,2
16.08.2018 18:00:00 27,0 19,4 9 5 22 12 WSW 0,0
16.08.2018 17:00:00 30,1 19,5 8 4 27 14 S 0,0
16.08.2018 16:00:00 30,3 19,6 8 4 27 14 ESE 0,0
16.08.2018 15:00:00 29,3 19,3 11 6 24 13 SE 0,0
16.08.2018 14:00:00 30,0 19,4 6 3 19 10 S -
16.08.2018 13:00:00 29,1 19,7 6 4 18 10 S 0,0
16.08.2018 12:00:00 29,5 19,5 6 3 19 10 NE 0,0
16.08.2018 11:00:00 28,5 20,0 7 4 16 9 NE 0,0
16.08.2018 10:00:00 27,6 21,9 4 2 14 8 N 0,0
16.08.2018 09:00:00 25,2 20,5 4 2 11 6 NW 0,0
16.08.2018 08:00:00 24,3 21,0 3 2 9 5 N -
16.08.2018 07:00:00 24,5 21,0 3 2 7 4 NW 0,0
16.08.2018 06:00:00 24,8 21,1 2 1 8 4 NNE 0,0
16.08.2018 05:00:00 25,3 21,2 4 2 10 5 NW 0,0
16.08.2018 04:00:00 25,7 21,1 5 3 11 6 N 0,0
16.08.2018 03:00:00 25,9 21,3 3 2 8 4 NNW 0,0
16.08.2018 02:00:00 26,1 21,5 3 2 9 5 N -
16.08.2018 01:00:00 26,3 21,5 2 1 7 4 NNE 0,0
16.08.2018 00:00:00 26,5 21,5 1 1 8 5 E 0,0
15.08.2018 23:00:00 26,7 21,7 4 2 13 7 ENE 0,0
15.08.2018 22:00:00 26,9 21,9 6 3 13 7 E 0,0
15.08.2018 21:00:00 27,5 22,2 2 1 11 6 SSE 0,0
15.08.2018 20:00:00 27,9 21,7 6 4 15 8 ESE -
15.08.2018 19:00:00 28,1 21,6 9 5 20 11 E 0,0
15.08.2018 18:00:00 28,5 21,8 11 6 23 13 ESE 0,0
15.08.2018 17:00:00 29,1 21,3 9 5 19 10 ESE 0,0
15.08.2018 16:00:00 29,7 20,8 9 5 22 12 SE 0,0
15.08.2018 15:00:00 29,5 22,2 5 3 20 11 S 0,0
15.08.2018 14:00:00 28,5 22,7 6 4 18 10 S -
15.08.2018 13:00:00 28,7 23,1 7 4 17 9 S 0,0
15.08.2018 12:00:00 27,6 23,0 8 4 16 9 S 0,0
15.08.2018 11:00:00 28,5 22,3 3 2 12 7 ENE 0,0
15.08.2018 10:00:00 28,1 23,5 5 3 10 6 N 0,0
15.08.2018 09:00:00 26,2 22,5 4 2 8 5 N 0,0
15.08.2018 08:00:00 25,4 22,1 1 1 11 6 NNW -
15.08.2018 07:00:00 25,3 22,0 4 2 8 5 NW 0,0
15.08.2018 06:00:00 25,7 22,4 4 2 11 6 N 0,0
15.08.2018 05:00:00 26,0 22,5 6 4 14 7 N 0,0
15.08.2018 04:00:00 26,5 23,0 4 2 11 6 N 0,0
15.08.2018 03:00:00 26,7 23,2 6 4 13 7 N 0,0
15.08.2018 02:00:00 26,9 23,2 2 1 11 6 NNE -
15.08.2018 01:00:00 27,1 23,3 4 2 12 7 ENE 0,0
15.08.2018 00:00:00 27,3 23,3 5 3 12 6 NE 0,0
14.08.2018 23:00:00 27,5 23,1 5 3 13 7 NE 0,0
14.08.2018 22:00:00 27,8 23,0 6 3 16 8 NE 0,0
14.08.2018 21:00:00 28,2 22,4 5 3 15 8 ENE 0,0
14.08.2018 20:00:00 28,8 22,5 7 4 22 12 ENE -
14.08.2018 19:00:00 29,7 22,4 9 5 24 13 ENE 0,0

tt = Température de l'air
td = dewpoint
ff = Vitesse du vent
fx = gusts
dd = Direction du vent
rr = Quantités de précipitations

stations d'obs. à proximité